sensor_id;sensor_type;location;lat;lon;timestamp;P1;durP1;ratioP1;P2;durP2;ratioP2
12480;SDS011;6305;48.398;11.762;2023-03-17T00:00:16;5.20;;;3.20;;
12480;SDS011;6305;48.398;11.762;2023-03-17T00:02:46;5.50;;;3.43;;
12480;SDS011;6305;48.398;11.762;2023-03-17T00:05:15;4.83;;;3.43;;
12480;SDS011;6305;48.398;11.762;2023-03-17T00:07:44;5.23;;;3.40;;
12480;SDS011;6305;48.398;11.762;2023-03-17T00:10:13;3.97;;;3.27;;
12480;SDS011;6305;48.398;11.762;2023-03-17T00:12:43;4.20;;;3.20;;
12480;SDS011;6305;48.398;11.762;2023-03-17T00:15:11;6.13;;;3.43;;
12480;SDS011;6305;48.398;11.762;2023-03-17T00:17:40;6.20;;;3.77;;
12480;SDS011;6305;48.398;11.762;2023-03-17T00:20:12;5.17;;;3.50;;
12480;SDS011;6305;48.398;11.762;2023-03-17T00:22:51;6.10;;;3.30;;
12480;SDS011;6305;48.398;11.762;2023-03-17T00:25:21;4.87;;;3.07;;
12480;SDS011;6305;48.398;11.762;2023-03-17T00:27:53;6.33;;;3.90;;
12480;SDS011;6305;48.398;11.762;2023-03-17T00:30:21;4.63;;;3.50;;
12480;SDS011;6305;48.398;11.762;2023-03-17T00:32:50;5.33;;;3.27;;
12480;SDS011;6305;48.398;11.762;2023-03-17T00:35:20;6.43;;;3.80;;
12480;SDS011;6305;48.398;11.762;2023-03-17T00:37:49;5.60;;;3.43;;
12480;SDS011;6305;48.398;11.762;2023-03-17T00:40:19;6.97;;;3.73;;
12480;SDS011;6305;48.398;11.762;2023-03-17T00:42:49;5.90;;;3.67;;
12480;SDS011;6305;48.398;11.762;2023-03-17T00:45:19;5.17;;;3.63;;
12480;SDS011;6305;48.398;11.762;2023-03-17T00:47:48;5.00;;;3.60;;
12480;SDS011;6305;48.398;11.762;2023-03-17T00:50:19;5.93;;;3.40;;
12480;SDS011;6305;48.398;11.762;2023-03-17T00:52:47;4.43;;;3.30;;
12480;SDS011;6305;48.398;11.762;2023-03-17T00:55:15;4.30;;;3.40;;
12480;SDS011;6305;48.398;11.762;2023-03-17T00:57:43;5.93;;;3.40;;
12480;SDS011;6305;48.398;11.762;2023-03-17T01:00:18;5.80;;;3.50;;
12480;SDS011;6305;48.398;11.762;2023-03-17T01:02:49;5.50;;;3.80;;
12480;SDS011;6305;48.398;11.762;2023-03-17T01:05:19;7.47;;;3.93;;
12480;SDS011;6305;48.398;11.762;2023-03-17T01:07:47;5.50;;;3.57;;
12480;SDS011;6305;48.398;11.762;2023-03-17T01:10:18;5.43;;;3.60;;
12480;SDS011;6305;48.398;11.762;2023-03-17T01:12:49;6.20;;;3.50;;
12480;SDS011;6305;48.398;11.762;2023-03-17T01:15:18;4.20;;;3.47;;
12480;SDS011;6305;48.398;11.762;2023-03-17T01:17:46;5.50;;;3.70;;
12480;SDS011;6305;48.398;11.762;2023-03-17T01:20:15;4.60;;;3.50;;
12480;SDS011;6305;48.398;11.762;2023-03-17T01:22:43;4.87;;;3.50;;
12480;SDS011;6305;48.398;11.762;2023-03-17T01:25:10;6.33;;;3.77;;
12480;SDS011;6305;48.398;11.762;2023-03-17T01:27:38;5.17;;;3.70;;
12480;SDS011;6305;48.398;11.762;2023-03-17T01:30:06;4.60;;;3.47;;
12480;SDS011;6305;48.398;11.762;2023-03-17T01:32:40;5.50;;;3.60;;
12480;SDS011;6305;48.398;11.762;2023-03-17T01:35:07;7.07;;;3.67;;
12480;SDS011;6305;48.398;11.762;2023-03-17T01:37:34;5.80;;;3.93;;
12480;SDS011;6305;48.398;11.762;2023-03-17T01:40:01;6.03;;;3.93;;
12480;SDS011;6305;48.398;11.762;2023-03-17T01:42:29;4.97;;;3.90;;
12480;SDS011;6305;48.398;11.762;2023-03-17T01:44:57;5.93;;;4.00;;
12480;SDS011;6305;48.398;11.762;2023-03-17T01:47:26;5.17;;;3.80;;
12480;SDS011;6305;48.398;11.762;2023-03-17T01:49:56;5.67;;;3.60;;
12480;SDS011;6305;48.398;11.762;2023-03-17T01:52:25;6.70;;;4.27;;
12480;SDS011;6305;48.398;11.762;2023-03-17T01:54:56;6.20;;;4.23;;
12480;SDS011;6305;48.398;11.762;2023-03-17T01:57:26;5.43;;;3.93;;
12480;SDS011;6305;48.398;11.762;2023-03-17T01:59:56;6.90;;;4.20;;
12480;SDS011;6305;48.398;11.762;2023-03-17T02:02:27;6.97;;;4.13;;
12480;SDS011;6305;48.398;11.762;2023-03-17T02:04:59;6.27;;;3.90;;
12480;SDS011;6305;48.398;11.762;2023-03-17T02:07:28;7.60;;;4.10;;
12480;SDS011;6305;48.398;11.762;2023-03-17T02:09:55;5.77;;;4.37;;
12480;SDS011;6305;48.398;11.762;2023-03-17T02:12:23;5.87;;;4.50;;
12480;SDS011;6305;48.398;11.762;2023-03-17T02:14:53;7.57;;;4.03;;
12480;SDS011;6305;48.398;11.762;2023-03-17T02:17:22;5.20;;;4.00;;
12480;SDS011;6305;48.398;11.762;2023-03-17T02:19:50;7.80;;;4.47;;
12480;SDS011;6305;48.398;11.762;2023-03-17T02:22:18;7.13;;;4.57;;
12480;SDS011;6305;48.398;11.762;2023-03-17T02:24:47;6.50;;;3.90;;
12480;SDS011;6305;48.398;11.762;2023-03-17T02:27:17;6.83;;;4.73;;
12480;SDS011;6305;48.398;11.762;2023-03-17T02:29:49;8.67;;;4.13;;
12480;SDS011;6305;48.398;11.762;2023-03-17T02:32:16;6.50;;;4.87;;
12480;SDS011;6305;48.398;11.762;2023-03-17T02:34:45;7.57;;;4.23;;
12480;SDS011;6305;48.398;11.762;2023-03-17T02:37:13;5.67;;;4.13;;
12480;SDS011;6305;48.398;11.762;2023-03-17T02:39:41;6.90;;;4.47;;
12480;SDS011;6305;48.398;11.762;2023-03-17T02:42:09;6.67;;;4.17;;
12480;SDS011;6305;48.398;11.762;2023-03-17T02:44:36;7.37;;;4.20;;
12480;SDS011;6305;48.398;11.762;2023-03-17T02:47:04;6.67;;;4.20;;
12480;SDS011;6305;48.398;11.762;2023-03-17T02:49:32;8.80;;;5.07;;
12480;SDS011;6305;48.398;11.762;2023-03-17T02:52:01;8.10;;;4.10;;
12480;SDS011;6305;48.398;11.762;2023-03-17T02:54:28;6.53;;;4.37;;
12480;SDS011;6305;48.398;11.762;2023-03-17T02:56:57;6.67;;;4.23;;
12480;SDS011;6305;48.398;11.762;2023-03-17T02:59:25;8.63;;;4.63;;
12480;SDS011;6305;48.398;11.762;2023-03-17T03:01:52;6.50;;;4.50;;
12480;SDS011;6305;48.398;11.762;2023-03-17T03:04:21;7.23;;;4.10;;
12480;SDS011;6305;48.398;11.762;2023-03-17T03:06:50;5.73;;;4.13;;
12480;SDS011;6305;48.398;11.762;2023-03-17T03:09:17;5.40;;;3.90;;
12480;SDS011;6305;48.398;11.762;2023-03-17T03:11:45;6.27;;;4.40;;
12480;SDS011;6305;48.398;11.762;2023-03-17T03:14:14;6.97;;;4.30;;
12480;SDS011;6305;48.398;11.762;2023-03-17T03:16:41;6.17;;;4.03;;
12480;SDS011;6305;48.398;11.762;2023-03-17T03:19:08;6.80;;;4.73;;
12480;SDS011;6305;48.398;11.762;2023-03-17T03:21:35;5.87;;;4.20;;
12480;SDS011;6305;48.398;11.762;2023-03-17T03:24:03;7.87;;;4.20;;
12480;SDS011;6305;48.398;11.762;2023-03-17T03:26:30;8.30;;;4.40;;
12480;SDS011;6305;48.398;11.762;2023-03-17T03:28:57;6.43;;;4.03;;
12480;SDS011;6305;48.398;11.762;2023-03-17T03:31:26;7.27;;;4.10;;
12480;SDS011;6305;48.398;11.762;2023-03-17T03:33:53;5.43;;;4.27;;
12480;SDS011;6305;48.398;11.762;2023-03-17T03:36:20;9.20;;;4.20;;
12480;SDS011;6305;48.398;11.762;2023-03-17T03:38:49;7.10;;;4.33;;
12480;SDS011;6305;48.398;11.762;2023-03-17T03:41:16;8.00;;;4.00;;
12480;SDS011;6305;48.398;11.762;2023-03-17T03:43:43;7.37;;;4.00;;
12480;SDS011;6305;48.398;11.762;2023-03-17T03:46:10;7.60;;;3.97;;
12480;SDS011;6305;48.398;11.762;2023-03-17T03:48:39;5.57;;;3.83;;
12480;SDS011;6305;48.398;11.762;2023-03-17T03:51:06;7.63;;;4.00;;
12480;SDS011;6305;48.398;11.762;2023-03-17T03:53:33;8.33;;;4.07;;
12480;SDS011;6305;48.398;11.762;2023-03-17T03:56:00;6.37;;;4.17;;
12480;SDS011;6305;48.398;11.762;2023-03-17T03:58:27;6.07;;;4.50;;
12480;SDS011;6305;48.398;11.762;2023-03-17T04:00:54;7.17;;;4.37;;
12480;SDS011;6305;48.398;11.762;2023-03-17T04:03:21;6.03;;;3.70;;
12480;SDS011;6305;48.398;11.762;2023-03-17T04:05:49;6.17;;;3.90;;
12480;SDS011;6305;48.398;11.762;2023-03-17T04:08:16;5.80;;;3.87;;
12480;SDS011;6305;48.398;11.762;2023-03-17T04:10:43;7.00;;;4.50;;
12480;SDS011;6305;48.398;11.762;2023-03-17T04:13:10;5.67;;;3.90;;
12480;SDS011;6305;48.398;11.762;2023-03-17T04:15:38;5.63;;;4.17;;
12480;SDS011;6305;48.398;11.762;2023-03-17T04:18:05;5.37;;;3.57;;
12480;SDS011;6305;48.398;11.762;2023-03-17T04:20:32;6.47;;;3.77;;
12480;SDS011;6305;48.398;11.762;2023-03-17T04:23:00;6.90;;;4.07;;
12480;SDS011;6305;48.398;11.762;2023-03-17T04:25:27;4.60;;;3.50;;
12480;SDS011;6305;48.398;11.762;2023-03-17T04:27:54;9.00;;;3.60;;
12480;SDS011;6305;48.398;11.762;2023-03-17T04:30:21;6.43;;;3.83;;
12480;SDS011;6305;48.398;11.762;2023-03-17T04:32:48;6.53;;;4.10;;
12480;SDS011;6305;48.398;11.762;2023-03-17T04:35:15;10.00;;;3.93;;
12480;SDS011;6305;48.398;11.762;2023-03-17T04:37:45;4.83;;;3.63;;
12480;SDS011;6305;48.398;11.762;2023-03-17T04:40:14;7.80;;;4.40;;
12480;SDS011;6305;48.398;11.762;2023-03-17T04:42:43;6.87;;;3.83;;
12480;SDS011;6305;48.398;11.762;2023-03-17T04:45:11;5.00;;;3.73;;
12480;SDS011;6305;48.398;11.762;2023-03-17T04:47:39;6.23;;;3.77;;
12480;SDS011;6305;48.398;11.762;2023-03-17T04:50:07;8.83;;;3.70;;
12480;SDS011;6305;48.398;11.762;2023-03-17T04:52:35;6.27;;;4.07;;
12480;SDS011;6305;48.398;11.762;2023-03-17T04:55:03;6.93;;;4.50;;
12480;SDS011;6305;48.398;11.762;2023-03-17T04:57:32;7.50;;;4.00;;
12480;SDS011;6305;48.398;11.762;2023-03-17T04:59:59;5.93;;;3.97;;
12480;SDS011;6305;48.398;11.762;2023-03-17T05:02:26;7.07;;;4.30;;
12480;SDS011;6305;48.398;11.762;2023-03-17T05:04:53;7.77;;;3.80;;
12480;SDS011;6305;48.398;11.762;2023-03-17T05:07:20;5.27;;;3.63;;
12480;SDS011;6305;48.398;11.762;2023-03-17T05:09:47;6.30;;;4.03;;
12480;SDS011;6305;48.398;11.762;2023-03-17T05:12:14;7.13;;;4.17;;
12480;SDS011;6305;48.398;11.762;2023-03-17T05:14:42;6.53;;;3.97;;
12480;SDS011;6305;48.398;11.762;2023-03-17T05:17:09;6.00;;;3.80;;
12480;SDS011;6305;48.398;11.762;2023-03-17T05:19:36;6.33;;;3.80;;
12480;SDS011;6305;48.398;11.762;2023-03-17T05:22:04;6.47;;;4.20;;
12480;SDS011;6305;48.398;11.762;2023-03-17T05:24:31;6.43;;;4.50;;
12480;SDS011;6305;48.398;11.762;2023-03-17T05:26:58;5.90;;;3.70;;
12480;SDS011;6305;48.398;11.762;2023-03-17T05:29:25;3.97;;;3.50;;
12480;SDS011;6305;48.398;11.762;2023-03-17T05:31:54;6.20;;;3.73;;
12480;SDS011;6305;48.398;11.762;2023-03-17T05:34:21;5.10;;;3.73;;
12480;SDS011;6305;48.398;11.762;2023-03-17T05:36:48;9.10;;;4.30;;
12480;SDS011;6305;48.398;11.762;2023-03-17T05:39:15;4.37;;;3.63;;
12480;SDS011;6305;48.398;11.762;2023-03-17T05:41:42;7.53;;;4.87;;
12480;SDS011;6305;48.398;11.762;2023-03-17T05:44:09;7.27;;;4.17;;
12480;SDS011;6305;48.398;11.762;2023-03-17T05:46:36;7.23;;;3.90;;
12480;SDS011;6305;48.398;11.762;2023-03-17T05:49:08;6.23;;;4.20;;
12480;SDS011;6305;48.398;11.762;2023-03-17T05:51:35;5.87;;;3.97;;
12480;SDS011;6305;48.398;11.762;2023-03-17T05:54:02;5.30;;;3.80;;
12480;SDS011;6305;48.398;11.762;2023-03-17T05:56:30;7.20;;;4.00;;
12480;SDS011;6305;48.398;11.762;2023-03-17T05:58:57;4.73;;;3.57;;
12480;SDS011;6305;48.398;11.762;2023-03-17T06:01:25;4.93;;;3.40;;
12480;SDS011;6305;48.398;11.762;2023-03-17T06:03:52;7.20;;;3.70;;
12480;SDS011;6305;48.398;11.762;2023-03-17T06:06:20;6.25;;;3.53;;
12480;SDS011;6305;48.398;11.762;2023-03-17T06:08:49;5.60;;;3.40;;
12480;SDS011;6305;48.398;11.762;2023-03-17T06:11:16;4.73;;;3.20;;
12480;SDS011;6305;48.398;11.762;2023-03-17T06:13:44;4.82;;;3.22;;
12480;SDS011;6305;48.398;11.762;2023-03-17T06:16:12;7.03;;;3.13;;
12480;SDS011;6305;48.398;11.762;2023-03-17T06:18:40;5.05;;;3.63;;
12480;SDS011;6305;48.398;11.762;2023-03-17T06:21:09;6.10;;;3.08;;
12480;SDS011;6305;48.398;11.762;2023-03-17T06:23:37;7.13;;;3.67;;
12480;SDS011;6305;48.398;11.762;2023-03-17T06:26:05;11.52;;;3.88;;
12480;SDS011;6305;48.398;11.762;2023-03-17T06:28:32;86.88;;;12.88;;
12480;SDS011;6305;48.398;11.762;2023-03-17T06:30:59;14.02;;;5.40;;
12480;SDS011;6305;48.398;11.762;2023-03-17T06:33:26;6.43;;;3.65;;
12480;SDS011;6305;48.398;11.762;2023-03-17T06:35:53;4.97;;;3.30;;
12480;SDS011;6305;48.398;11.762;2023-03-17T06:38:20;7.63;;;3.33;;
12480;SDS011;6305;48.398;11.762;2023-03-17T06:40:48;7.25;;;3.67;;
12480;SDS011;6305;48.398;11.762;2023-03-17T06:43:15;4.85;;;3.40;;
12480;SDS011;6305;48.398;11.762;2023-03-17T06:45:44;6.75;;;3.53;;
12480;SDS011;6305;48.398;11.762;2023-03-17T06:48:11;4.95;;;3.22;;
12480;SDS011;6305;48.398;11.762;2023-03-17T06:50:38;5.18;;;3.63;;
12480;SDS011;6305;48.398;11.762;2023-03-17T06:53:05;8.18;;;3.60;;
12480;SDS011;6305;48.398;11.762;2023-03-17T06:55:32;4.40;;;3.20;;
12480;SDS011;6305;48.398;11.762;2023-03-17T06:58:00;4.07;;;3.05;;
12480;SDS011;6305;48.398;11.762;2023-03-17T07:00:27;4.07;;;2.97;;
12480;SDS011;6305;48.398;11.762;2023-03-17T07:02:55;4.00;;;3.13;;
12480;SDS011;6305;48.398;11.762;2023-03-17T07:05:22;4.57;;;2.85;;
12480;SDS011;6305;48.398;11.762;2023-03-17T07:07:49;4.93;;;2.85;;
12480;SDS011;6305;48.398;11.762;2023-03-17T07:10:16;3.38;;;2.75;;
12480;SDS011;6305;48.398;11.762;2023-03-17T07:12:44;4.63;;;2.88;;
12480;SDS011;6305;48.398;11.762;2023-03-17T07:15:13;5.28;;;2.83;;
12480;SDS011;6305;48.398;11.762;2023-03-17T07:17:41;5.13;;;2.85;;
12480;SDS011;6305;48.398;11.762;2023-03-17T07:20:08;3.17;;;2.40;;
12480;SDS011;6305;48.398;11.762;2023-03-17T07:22:36;3.80;;;2.97;;
12480;SDS011;6305;48.398;11.762;2023-03-17T07:25:04;4.60;;;2.92;;
12480;SDS011;6305;48.398;11.762;2023-03-17T07:27:32;3.90;;;3.00;;
12480;SDS011;6305;48.398;11.762;2023-03-17T07:29:59;3.78;;;2.97;;
12480;SDS011;6305;48.398;11.762;2023-03-17T07:32:30;3.67;;;2.80;;
12480;SDS011;6305;48.398;11.762;2023-03-17T07:34:57;5.05;;;3.30;;
12480;SDS011;6305;48.398;11.762;2023-03-17T07:37:24;4.43;;;2.63;;
12480;SDS011;6305;48.398;11.762;2023-03-17T07:39:51;4.35;;;2.60;;
12480;SDS011;6305;48.398;11.762;2023-03-17T07:42:17;3.08;;;2.50;;
12480;SDS011;6305;48.398;11.762;2023-03-17T07:44:45;4.53;;;2.92;;
12480;SDS011;6305;48.398;11.762;2023-03-17T07:47:12;4.18;;;2.97;;
12480;SDS011;6305;48.398;11.762;2023-03-17T07:49:41;3.70;;;2.80;;
12480;SDS011;6305;48.398;11.762;2023-03-17T07:52:09;3.42;;;2.67;;
12480;SDS011;6305;48.398;11.762;2023-03-17T07:54:36;2.38;;;2.17;;
12480;SDS011;6305;48.398;11.762;2023-03-17T07:57:04;2.95;;;2.67;;
12480;SDS011;6305;48.398;11.762;2023-03-17T07:59:31;2.88;;;2.63;;
12480;SDS011;6305;48.398;11.762;2023-03-17T08:01:58;4.55;;;3.20;;
12480;SDS011;6305;48.398;11.762;2023-03-17T08:04:26;2.95;;;2.45;;
12480;SDS011;6305;48.398;11.762;2023-03-17T08:06:54;3.38;;;2.42;;
12480;SDS011;6305;48.398;11.762;2023-03-17T08:09:21;2.85;;;2.53;;
12480;SDS011;6305;48.398;11.762;2023-03-17T08:11:48;2.40;;;2.20;;
12480;SDS011;6305;48.398;11.762;2023-03-17T08:14:15;3.28;;;2.40;;
12480;SDS011;6305;48.398;11.762;2023-03-17T08:16:43;3.72;;;2.60;;
12480;SDS011;6305;48.398;11.762;2023-03-17T08:19:10;5.28;;;2.90;;
12480;SDS011;6305;48.398;11.762;2023-03-17T08:21:37;3.10;;;2.80;;
12480;SDS011;6305;48.398;11.762;2023-03-17T08:24:05;3.33;;;2.42;;
12480;SDS011;6305;48.398;11.762;2023-03-17T08:26:33;3.00;;;2.63;;
12480;SDS011;6305;48.398;11.762;2023-03-17T08:29:00;4.80;;;2.60;;
12480;SDS011;6305;48.398;11.762;2023-03-17T08:31:29;3.10;;;2.70;;
12480;SDS011;6305;48.398;11.762;2023-03-17T08:33:58;3.03;;;2.72;;
12480;SDS011;6305;48.398;11.762;2023-03-17T08:36:26;4.32;;;2.30;;
12480;SDS011;6305;48.398;11.762;2023-03-17T08:38:53;3.33;;;2.28;;
12480;SDS011;6305;48.398;11.762;2023-03-17T08:41:22;2.92;;;2.40;;
12480;SDS011;6305;48.398;11.762;2023-03-17T08:43:51;2.70;;;2.50;;
12480;SDS011;6305;48.398;11.762;2023-03-17T08:46:19;4.07;;;2.80;;
12480;SDS011;6305;48.398;11.762;2023-03-17T08:48:48;4.00;;;2.50;;
12480;SDS011;6305;48.398;11.762;2023-03-17T08:51:16;3.78;;;2.63;;
12480;SDS011;6305;48.398;11.762;2023-03-17T08:53:46;4.25;;;2.75;;
12480;SDS011;6305;48.398;11.762;2023-03-17T08:56:14;4.82;;;2.90;;
12480;SDS011;6305;48.398;11.762;2023-03-17T08:58:43;4.80;;;2.97;;
12480;SDS011;6305;48.398;11.762;2023-03-17T09:01:11;6.90;;;4.43;;
12480;SDS011;6305;48.398;11.762;2023-03-17T09:03:38;8.85;;;5.60;;
12480;SDS011;6305;48.398;11.762;2023-03-17T09:06:06;4.97;;;2.92;;
12480;SDS011;6305;48.398;11.762;2023-03-17T09:08:35;6.22;;;2.92;;
12480;SDS011;6305;48.398;11.762;2023-03-17T09:11:04;3.30;;;2.53;;
12480;SDS011;6305;48.398;11.762;2023-03-17T09:13:32;3.05;;;2.25;;
12480;SDS011;6305;48.398;11.762;2023-03-17T09:16:04;4.55;;;2.45;;
12480;SDS011;6305;48.398;11.762;2023-03-17T09:18:32;3.63;;;2.45;;
12480;SDS011;6305;48.398;11.762;2023-03-17T09:20:59;3.13;;;2.50;;
12480;SDS011;6305;48.398;11.762;2023-03-17T09:23:27;3.97;;;2.22;;
12480;SDS011;6305;48.398;11.762;2023-03-17T09:25:55;4.47;;;2.30;;
12480;SDS011;6305;48.398;11.762;2023-03-17T09:28:26;2.40;;;2.20;;
12480;SDS011;6305;48.398;11.762;2023-03-17T09:30:56;3.25;;;2.60;;
12480;SDS011;6305;48.398;11.762;2023-03-17T09:33:24;2.40;;;2.17;;
12480;SDS011;6305;48.398;11.762;2023-03-17T09:35:51;2.83;;;2.30;;
12480;SDS011;6305;48.398;11.762;2023-03-17T09:38:21;2.63;;;2.42;;
12480;SDS011;6305;48.398;11.762;2023-03-17T09:40:55;2.95;;;2.40;;
12480;SDS011;6305;48.398;11.762;2023-03-17T09:43:27;4.28;;;2.00;;
12480;SDS011;6305;48.398;11.762;2023-03-17T09:46:03;4.05;;;2.58;;
12480;SDS011;6305;48.398;11.762;2023-03-17T09:48:44;2.63;;;2.33;;
12480;SDS011;6305;48.398;11.762;2023-03-17T09:51:17;3.72;;;3.00;;
12480;SDS011;6305;48.398;11.762;2023-03-17T09:53:47;3.88;;;2.70;;
12480;SDS011;6305;48.398;11.762;2023-03-17T09:56:17;2.85;;;2.58;;
12480;SDS011;6305;48.398;11.762;2023-03-17T09:58:46;4.28;;;2.80;;
12480;SDS011;6305;48.398;11.762;2023-03-17T10:01:17;3.67;;;2.42;;
12480;SDS011;6305;48.398;11.762;2023-03-17T10:03:46;4.65;;;3.95;;
12480;SDS011;6305;48.398;11.762;2023-03-17T10:06:27;2.55;;;2.00;;
12480;SDS011;6305;48.398;11.762;2023-03-17T10:09:01;2.83;;;2.53;;
12480;SDS011;6305;48.398;11.762;2023-03-17T10:11:39;2.90;;;2.60;;
12480;SDS011;6305;48.398;11.762;2023-03-17T10:17:11;3.97;;;2.05;;
12480;SDS011;6305;48.398;11.762;2023-03-17T10:19:44;3.65;;;2.20;;
12480;SDS011;6305;48.398;11.762;2023-03-17T10:22:18;2.42;;;1.90;;
12480;SDS011;6305;48.398;11.762;2023-03-17T10:24:49;3.85;;;2.60;;
12480;SDS011;6305;48.398;11.762;2023-03-17T10:27:17;5.95;;;3.90;;
12480;SDS011;6305;48.398;11.762;2023-03-17T10:29:45;4.13;;;2.30;;
12480;SDS011;6305;48.398;11.762;2023-03-17T10:32:13;3.25;;;1.90;;
12480;SDS011;6305;48.398;11.762;2023-03-17T10:34:40;2.47;;;1.90;;
12480;SDS011;6305;48.398;11.762;2023-03-17T10:37:12;2.28;;;2.08;;
12480;SDS011;6305;48.398;11.762;2023-03-17T10:39:43;2.50;;;2.10;;
12480;SDS011;6305;48.398;11.762;2023-03-17T10:42:12;2.00;;;1.80;;
12480;SDS011;6305;48.398;11.762;2023-03-17T10:44:47;3.10;;;2.10;;
12480;SDS011;6305;48.398;11.762;2023-03-17T10:47:19;2.75;;;2.17;;
12480;SDS011;6305;48.398;11.762;2023-03-17T10:49:56;2.58;;;2.33;;
12480;SDS011;6305;48.398;11.762;2023-03-17T10:52:26;3.13;;;2.42;;
12480;SDS011;6305;48.398;11.762;2023-03-17T10:54:58;2.08;;;1.73;;
12480;SDS011;6305;48.398;11.762;2023-03-17T10:57:28;2.45;;;2.10;;
12480;SDS011;6305;48.398;11.762;2023-03-17T10:59:55;2.67;;;2.20;;
12480;SDS011;6305;48.398;11.762;2023-03-17T11:02:26;2.13;;;1.90;;
12480;SDS011;6305;48.398;11.762;2023-03-17T11:04:58;2.17;;;1.92;;
12480;SDS011;6305;48.398;11.762;2023-03-17T11:07:32;3.65;;;2.25;;
12480;SDS011;6305;48.398;11.762;2023-03-17T11:10:03;3.55;;;2.33;;
12480;SDS011;6305;48.398;11.762;2023-03-17T11:12:45;4.40;;;2.00;;
12480;SDS011;6305;48.398;11.762;2023-03-17T11:15:16;2.40;;;1.92;;
12480;SDS011;6305;48.398;11.762;2023-03-17T11:17:50;2.97;;;2.20;;
12480;SDS011;6305;48.398;11.762;2023-03-17T11:20:32;2.78;;;2.03;;
12480;SDS011;6305;48.398;11.762;2023-03-17T11:23:15;3.92;;;2.15;;
12480;SDS011;6305;48.398;11.762;2023-03-17T11:25:53;2.55;;;2.25;;
12480;SDS011;6305;48.398;11.762;2023-03-17T11:28:28;2.90;;;2.20;;
12480;SDS011;6305;48.398;11.762;2023-03-17T11:31:01;2.90;;;2.20;;
12480;SDS011;6305;48.398;11.762;2023-03-17T11:33:39;3.33;;;1.70;;
12480;SDS011;6305;48.398;11.762;2023-03-17T11:36:17;1.80;;;1.60;;
12480;SDS011;6305;48.398;11.762;2023-03-17T11:38:58;2.47;;;2.00;;
12480;SDS011;6305;48.398;11.762;2023-03-17T11:41:44;2.22;;;2.00;;
12480;SDS011;6305;48.398;11.762;2023-03-17T11:44:37;1.90;;;1.80;;
12480;SDS011;6305;48.398;11.762;2023-03-17T11:47:36;1.83;;;1.73;;
12480;SDS011;6305;48.398;11.762;2023-03-17T11:50:12;4.78;;;1.75;;
12480;SDS011;6305;48.398;11.762;2023-03-17T11:52:49;1.73;;;1.60;;
12480;SDS011;6305;48.398;11.762;2023-03-17T11:55:31;1.50;;;1.40;;
12480;SDS011;6305;48.398;11.762;2023-03-17T11:58:05;1.73;;;1.63;;
12480;SDS011;6305;48.398;11.762;2023-03-17T12:00:40;2.42;;;1.52;;
12480;SDS011;6305;48.398;11.762;2023-03-17T12:03:16;2.42;;;1.75;;
12480;SDS011;6305;48.398;11.762;2023-03-17T12:05:52;2.08;;;1.45;;
12480;SDS011;6305;48.398;11.762;2023-03-17T12:08:23;1.75;;;1.50;;
12480;SDS011;6305;48.398;11.762;2023-03-17T12:10:57;2.00;;;1.40;;
12480;SDS011;6305;48.398;11.762;2023-03-17T12:13:28;1.73;;;1.60;;
12480;SDS011;6305;48.398;11.762;2023-03-17T12:16:00;2.13;;;1.70;;
12480;SDS011;6305;48.398;11.762;2023-03-17T12:18:31;2.00;;;1.60;;
12480;SDS011;6305;48.398;11.762;2023-03-17T12:21:03;1.83;;;1.40;;
12480;SDS011;6305;48.398;11.762;2023-03-17T12:23:37;2.58;;;1.45;;
12480;SDS011;6305;48.398;11.762;2023-03-17T12:26:11;2.22;;;1.60;;
12480;SDS011;6305;48.398;11.762;2023-03-17T12:28:41;1.60;;;1.50;;
12480;SDS011;6305;48.398;11.762;2023-03-17T12:31:12;2.78;;;1.50;;
12480;SDS011;6305;48.398;11.762;2023-03-17T12:33:45;1.63;;;1.52;;
12480;SDS011;6305;48.398;11.762;2023-03-17T12:36:19;1.75;;;1.35;;
12480;SDS011;6305;48.398;11.762;2023-03-17T12:38:48;4.50;;;1.30;;
12480;SDS011;6305;48.398;11.762;2023-03-17T12:41:32;1.70;;;1.58;;
12480;SDS011;6305;48.398;11.762;2023-03-17T12:44:06;2.03;;;1.40;;
12480;SDS011;6305;48.398;11.762;2023-03-17T12:46:50;1.08;;;1.00;;
12480;SDS011;6305;48.398;11.762;2023-03-17T12:52:30;3.40;;;1.70;;
12480;SDS011;6305;48.398;11.762;2023-03-17T12:55:08;1.60;;;1.50;;
12480;SDS011;6305;48.398;11.762;2023-03-17T12:57:40;4.47;;;1.55;;
12480;SDS011;6305;48.398;11.762;2023-03-17T13:00:18;2.28;;;1.63;;
12480;SDS011;6305;48.398;11.762;2023-03-17T13:02:49;1.67;;;1.48;;
12480;SDS011;6305;48.398;11.762;2023-03-17T13:05:26;3.45;;;2.50;;
12480;SDS011;6305;48.398;11.762;2023-03-17T13:07:58;2.45;;;1.75;;
12480;SDS011;6305;48.398;11.762;2023-03-17T13:10:37;3.22;;;2.05;;
12480;SDS011;6305;48.398;11.762;2023-03-17T13:13:12;2.50;;;2.25;;
12480;SDS011;6305;48.398;11.762;2023-03-17T13:18:50;2.20;;;1.92;;
12480;SDS011;6305;48.398;11.762;2023-03-17T13:21:31;2.03;;;1.83;;
12480;SDS011;6305;48.398;11.762;2023-03-17T13:26:49;2.08;;;1.90;;
12480;SDS011;6305;48.398;11.762;2023-03-17T13:29:25;1.60;;;1.50;;
12480;SDS011;6305;48.398;11.762;2023-03-17T13:35:17;2.35;;;1.67;;
12480;SDS011;6305;48.398;11.762;2023-03-17T13:37:50;2.13;;;1.88;;
12480;SDS011;6305;48.398;11.762;2023-03-17T13:40:33;2.17;;;1.80;;
12480;SDS011;6305;48.398;11.762;2023-03-17T13:43:08;2.83;;;1.88;;
12480;SDS011;6305;48.398;11.762;2023-03-17T13:45:48;2.05;;;1.85;;
12480;SDS011;6305;48.398;11.762;2023-03-17T13:48:23;1.98;;;1.73;;
12480;SDS011;6305;48.398;11.762;2023-03-17T13:50:58;2.65;;;1.77;;
12480;SDS011;6305;48.398;11.762;2023-03-17T13:53:29;2.35;;;2.15;;
12480;SDS011;6305;48.398;11.762;2023-03-17T13:56:03;2.20;;;1.95;;
12480;SDS011;6305;48.398;11.762;2023-03-17T13:58:47;2.30;;;1.70;;
12480;SDS011;6305;48.398;11.762;2023-03-17T14:01:19;2.28;;;2.08;;
12480;SDS011;6305;48.398;11.762;2023-03-17T14:03:48;2.45;;;1.90;;
12480;SDS011;6305;48.398;11.762;2023-03-17T14:06:18;3.47;;;1.75;;
12480;SDS011;6305;48.398;11.762;2023-03-17T14:08:51;2.30;;;1.98;;
12480;SDS011;6305;48.398;11.762;2023-03-17T14:11:56;2.75;;;1.98;;
12480;SDS011;6305;48.398;11.762;2023-03-17T14:14:51;2.22;;;2.00;;
12480;SDS011;6305;48.398;11.762;2023-03-17T14:17:41;3.97;;;2.25;;
12480;SDS011;6305;48.398;11.762;2023-03-17T14:20:19;1.98;;;1.75;;
12480;SDS011;6305;48.398;11.762;2023-03-17T14:23:07;1.75;;;1.58;;
12480;SDS011;6305;48.398;11.762;2023-03-17T14:25:51;1.83;;;1.70;;
12480;SDS011;6305;48.398;11.762;2023-03-17T14:28:57;2.67;;;1.60;;
12480;SDS011;6305;48.398;11.762;2023-03-17T14:31:36;2.20;;;1.70;;
12480;SDS011;6305;48.398;11.762;2023-03-17T14:34:42;2.28;;;2.08;;
12480;SDS011;6305;48.398;11.762;2023-03-17T14:37:38;1.83;;;1.60;;
12480;SDS011;6305;48.398;11.762;2023-03-17T14:40:26;2.00;;;1.42;;
12480;SDS011;6305;48.398;11.762;2023-03-17T14:43:32;1.67;;;1.52;;
12480;SDS011;6305;48.398;11.762;2023-03-17T14:46:49;2.15;;;1.75;;
12480;SDS011;6305;48.398;11.762;2023-03-17T14:49:44;1.98;;;1.77;;
12480;SDS011;6305;48.398;11.762;2023-03-17T14:52:32;2.60;;;1.98;;
12480;SDS011;6305;48.398;11.762;2023-03-17T14:55:13;3.13;;;2.35;;
12480;SDS011;6305;48.398;11.762;2023-03-17T14:58:04;2.15;;;1.88;;
12480;SDS011;6305;48.398;11.762;2023-03-17T15:00:53;4.10;;;1.70;;
12480;SDS011;6305;48.398;11.762;2023-03-17T15:04:04;2.35;;;1.92;;
12480;SDS011;6305;48.398;11.762;2023-03-17T15:06:53;2.10;;;1.70;;
12480;SDS011;6305;48.398;11.762;2023-03-17T15:09:43;1.92;;;1.73;;
12480;SDS011;6305;48.398;11.762;2023-03-17T15:12:43;2.35;;;1.90;;
12480;SDS011;6305;48.398;11.762;2023-03-17T15:15:22;3.90;;;2.00;;
12480;SDS011;6305;48.398;11.762;2023-03-17T15:18:25;1.95;;;1.75;;
12480;SDS011;6305;48.398;11.762;2023-03-17T15:21:31;2.17;;;1.65;;
12480;SDS011;6305;48.398;11.762;2023-03-17T15:27:40;2.60;;;2.13;;
12480;SDS011;6305;48.398;11.762;2023-03-17T15:30:58;2.15;;;1.95;;
12480;SDS011;6305;48.398;11.762;2023-03-17T15:34:16;1.98;;;1.60;;